createdAt,value
2022-10-02T00:01:09.539Z,1.52
2022-10-02T00:03:21.394Z,2.00
2022-10-02T00:05:30.838Z,1.83
2022-10-02T00:07:41.300Z,1.70
2022-10-02T00:09:54.607Z,1.60
2022-10-02T00:12:01.918Z,2.03
2022-10-02T00:14:08.503Z,2.00
2022-10-02T00:16:24.348Z,1.73
2022-10-02T00:20:46.969Z,1.35
2022-10-02T00:22:56.480Z,2.42
2022-10-02T00:25:11.244Z,1.40
2022-10-02T00:27:34.201Z,1.55
2022-10-02T00:29:49.174Z,2.42
2022-10-02T00:32:04.642Z,1.93
2022-10-02T00:34:21.814Z,2.40
2022-10-02T00:36:37.746Z,2.05
2022-10-02T00:38:52.883Z,2.20
2022-10-02T00:41:35.212Z,2.63
2022-10-02T00:43:54.730Z,2.17
2022-10-02T00:46:18.375Z,2.30
2022-10-02T00:48:49.870Z,2.63
2022-10-02T00:51:01.264Z,1.92
2022-10-02T00:53:19.959Z,2.33
2022-10-02T00:55:54.159Z,2.08
2022-10-02T00:58:15.627Z,2.92
2022-10-02T01:00:23.130Z,2.72
2022-10-02T01:02:50.708Z,2.58
2022-10-02T01:04:56.253Z,2.67
2022-10-02T01:07:01.231Z,1.90
2022-10-02T01:09:06.296Z,2.10
2022-10-02T01:11:13.581Z,1.88
2022-10-02T01:13:21.018Z,1.92
2022-10-02T01:15:30.774Z,2.13
2022-10-02T01:17:37.512Z,2.15
2022-10-02T01:19:44.307Z,2.83
2022-10-02T01:21:53.530Z,2.33
2022-10-02T01:24:04.858Z,2.35
2022-10-02T01:26:12.436Z,2.38
2022-10-02T01:28:17.488Z,2.58
2022-10-02T01:30:23.417Z,2.65
2022-10-02T01:32:29.345Z,2.45
2022-10-02T01:34:34.481Z,2.13
2022-10-02T01:38:45.016Z,2.15
2022-10-02T01:40:49.887Z,1.73
2022-10-02T01:43:00.044Z,1.63
2022-10-02T01:45:06.146Z,1.88
2022-10-02T01:47:15.516Z,2.05
2022-10-02T01:49:47.797Z,2.45
2022-10-02T01:52:08.825Z,1.60
2022-10-02T01:54:24.028Z,1.33
2022-10-02T01:56:38.863Z,2.30
2022-10-02T01:58:57.217Z,2.42
2022-10-02T02:01:14.158Z,2.15
2022-10-02T02:03:25.418Z,1.90
2022-10-02T02:05:42.857Z,2.50
2022-10-02T02:07:52.386Z,2.17
2022-10-02T02:10:04.837Z,2.28
2022-10-02T02:12:17.984Z,2.22
2022-10-02T02:14:31.282Z,2.42
2022-10-02T02:16:43.996Z,1.80
2022-10-02T02:18:53.048Z,1.70
2022-10-02T02:21:02.361Z,1.98
2022-10-02T02:23:10.769Z,1.85
2022-10-02T02:25:19.689Z,1.88
2022-10-02T02:27:30.341Z,2.13
2022-10-02T02:29:41.598Z,2.75
2022-10-02T02:31:52.257Z,2.17
2022-10-02T02:34:01.264Z,3.22
2022-10-02T02:36:12.938Z,1.90
2022-10-02T02:38:24.933Z,2.25
2022-10-02T02:40:34.008Z,2.35
2022-10-02T02:42:43.603Z,3.10
2022-10-02T02:44:56.903Z,1.92
2022-10-02T02:47:06.922Z,2.40
2022-10-02T02:49:14.967Z,1.88
2022-10-02T02:51:25.140Z,2.55
2022-10-02T02:53:36.219Z,2.03
2022-10-02T02:55:46.010Z,2.03
2022-10-02T02:57:56.392Z,2.35
2022-10-02T03:00:05.453Z,2.10
2022-10-02T03:02:10.321Z,2.10
2022-10-02T03:04:17.005Z,2.40
2022-10-02T03:06:38.254Z,2.13
2022-10-02T03:08:43.248Z,2.33
2022-10-02T03:10:57.217Z,2.90
2022-10-02T03:13:19.282Z,2.20
2022-10-02T03:15:35.596Z,2.70
2022-10-02T03:17:53.580Z,1.90
2022-10-02T03:20:07.479Z,1.63
2022-10-02T03:22:17.814Z,2.10
2022-10-02T03:24:30.024Z,2.03
2022-10-02T03:26:41.223Z,3.53
2022-10-02T03:28:56.146Z,2.40
2022-10-02T03:31:04.486Z,2.03
2022-10-02T03:33:12.558Z,2.50
2022-10-02T03:35:18.629Z,2.05
2022-10-02T03:37:24.215Z,1.77
2022-10-02T03:39:29.155Z,1.70
2022-10-02T03:41:34.009Z,1.90
2022-10-02T03:43:38.826Z,1.33
2022-10-02T03:45:51.917Z,1.88
2022-10-02T03:47:59.677Z,2.13
2022-10-02T03:50:04.490Z,2.22
2022-10-02T03:52:09.240Z,2.20
2022-10-02T03:54:19.523Z,2.10
2022-10-02T03:56:37.988Z,1.80
2022-10-02T03:58:50.057Z,1.95
2022-10-02T04:01:00.784Z,1.90
2022-10-02T04:03:13.758Z,1.63
2022-10-02T04:05:25.894Z,1.75
2022-10-02T04:07:36.636Z,1.98
2022-10-02T04:09:49.070Z,1.70
2022-10-02T04:12:01.373Z,1.42
2022-10-02T04:14:13.022Z,1.48
2022-10-02T04:16:21.735Z,1.70
2022-10-02T04:18:35.197Z,1.58
2022-10-02T04:20:47.668Z,1.80
2022-10-02T04:22:57.557Z,1.67
2022-10-02T04:25:08.314Z,1.50
2022-10-02T04:27:19.975Z,1.48
2022-10-02T04:29:28.682Z,1.45
2022-10-02T04:31:33.670Z,1.92
2022-10-02T04:33:41.469Z,1.30
2022-10-02T04:35:56.479Z,1.83
2022-10-02T04:38:25.372Z,2.20
2022-10-02T04:40:50.485Z,1.50
2022-10-02T04:43:10.628Z,1.95
2022-10-02T04:45:28.670Z,1.80
2022-10-02T04:48:21.081Z,1.85
2022-10-02T04:50:44.714Z,1.67
2022-10-02T04:52:59.453Z,1.73
2022-10-02T04:55:21.836Z,1.80
2022-10-02T04:57:40.336Z,1.83
2022-10-02T05:00:00.435Z,2.20
2022-10-02T05:02:18.995Z,1.70
2022-10-02T05:04:37.228Z,2.40
2022-10-02T05:07:00.093Z,1.77
2022-10-02T05:09:14.887Z,2.45
2022-10-02T05:11:43.058Z,1.73
2022-10-02T05:14:03.691Z,1.63
2022-10-02T05:16:26.454Z,1.63
2022-10-02T05:18:52.622Z,1.83
2022-10-02T05:21:10.224Z,1.90
2022-10-02T05:23:32.803Z,1.80
2022-10-02T05:25:59.847Z,1.58
2022-10-02T05:28:27.870Z,1.60
2022-10-02T05:30:40.192Z,1.92
2022-10-02T05:33:10.517Z,2.17
2022-10-02T05:35:29.089Z,2.17
2022-10-02T05:37:45.955Z,2.00
2022-10-02T05:40:03.677Z,2.00
2022-10-02T05:42:15.141Z,1.90
2022-10-02T05:44:23.158Z,1.42
2022-10-02T05:46:30.013Z,1.85
2022-10-02T05:48:47.688Z,2.15
2022-10-02T05:50:55.001Z,1.30
2022-10-02T05:53:03.645Z,2.55
2022-10-02T05:55:21.606Z,1.85
2022-10-02T05:57:33.756Z,1.63
2022-10-02T05:59:44.117Z,1.60
2022-10-02T06:01:52.603Z,1.83
2022-10-02T06:04:05.140Z,2.13
2022-10-02T06:06:15.569Z,1.90
2022-10-02T06:08:24.180Z,1.65
2022-10-02T06:10:37.570Z,2.25
2022-10-02T06:12:48.145Z,2.00
2022-10-02T06:14:57.958Z,1.98
2022-10-02T06:17:07.378Z,1.88
2022-10-02T06:19:16.517Z,2.67
2022-10-02T06:21:29.364Z,2.20
2022-10-02T06:23:38.703Z,1.90
2022-10-02T06:25:48.905Z,1.75
2022-10-02T06:27:58.863Z,2.00
2022-10-02T06:30:07.277Z,1.83
2022-10-02T06:32:22.069Z,2.15
2022-10-02T06:34:26.890Z,2.28
2022-10-02T06:36:56.888Z,2.10
2022-10-02T06:39:29.363Z,2.30
2022-10-02T06:41:48.458Z,1.98
2022-10-02T06:44:09.625Z,2.25
2022-10-02T06:46:27.229Z,2.80
2022-10-02T06:48:40.822Z,2.30
2022-10-02T06:50:51.501Z,3.13
2022-10-02T06:53:01.063Z,2.00
2022-10-02T06:55:25.910Z,2.10
2022-10-02T06:57:48.882Z,2.05
2022-10-02T07:00:08.290Z,2.80
2022-10-02T07:02:27.405Z,2.55
2022-10-02T07:04:42.330Z,2.22
2022-10-02T07:07:01.319Z,3.47
2022-10-02T07:09:38.118Z,2.40
2022-10-02T07:14:12.582Z,2.47
2022-10-02T07:16:27.372Z,3.10
2022-10-02T07:18:46.383Z,2.70
2022-10-02T07:21:01.788Z,2.65
2022-10-02T07:23:42.810Z,2.75
2022-10-02T07:26:03.344Z,2.65
2022-10-02T07:28:15.721Z,2.00
2022-10-02T07:30:23.213Z,2.55
2022-10-02T07:32:50.270Z,2.63
2022-10-02T07:35:05.944Z,2.05
2022-10-02T07:37:20.784Z,2.17
2022-10-02T07:39:45.710Z,2.73
2022-10-02T07:42:32.204Z,2.63
2022-10-02T07:45:00.010Z,2.30
2022-10-02T07:47:26.977Z,2.85
2022-10-02T07:49:53.594Z,2.08
2022-10-02T07:52:03.700Z,1.90
2022-10-02T07:54:22.979Z,1.63
2022-10-02T07:56:29.124Z,1.85
2022-10-02T07:58:41.563Z,1.88
2022-10-02T08:00:51.977Z,2.20
2022-10-02T08:03:02.931Z,1.65
2022-10-02T08:05:19.725Z,2.10
2022-10-02T08:07:24.531Z,2.30
2022-10-02T08:09:36.421Z,1.65
2022-10-02T08:11:49.470Z,1.85
2022-10-02T08:14:00.120Z,1.98
2022-10-02T08:16:07.775Z,1.70
2022-10-02T08:18:34.231Z,2.22
2022-10-02T08:20:44.061Z,2.15
2022-10-02T08:22:53.485Z,2.03
2022-10-02T08:25:02.272Z,1.92
2022-10-02T08:27:15.428Z,2.55
2022-10-02T08:29:25.485Z,2.33
2022-10-02T08:31:30.447Z,2.70
2022-10-02T08:33:39.145Z,2.22
2022-10-02T08:35:59.654Z,1.58
2022-10-02T08:38:20.916Z,2.28
2022-10-02T08:40:54.315Z,2.70
2022-10-02T08:43:33.138Z,2.35
2022-10-02T08:46:14.633Z,2.53
2022-10-02T08:48:55.054Z,3.13
2022-10-02T08:51:35.203Z,2.35
2022-10-02T08:54:12.768Z,2.50
2022-10-02T08:56:26.993Z,2.92
2022-10-02T08:59:08.358Z,2.17
2022-10-02T09:01:40.598Z,2.63
2022-10-02T09:04:28.382Z,2.22
2022-10-02T09:07:03.158Z,1.88
2022-10-02T09:09:37.765Z,1.88
2022-10-02T09:12:16.862Z,1.58
2022-10-02T09:14:46.263Z,2.88
2022-10-02T09:17:16.433Z,2.03
2022-10-02T09:19:44.058Z,2.60
2022-10-02T09:21:56.422Z,2.47
2022-10-02T09:24:27.444Z,1.85
2022-10-02T09:27:04.839Z,3.38
2022-10-02T09:29:38.264Z,2.25
2022-10-02T09:32:12.972Z,2.20
2022-10-02T09:34:53.113Z,2.22
2022-10-02T09:37:35.840Z,2.00
2022-10-02T09:40:19.445Z,2.38
2022-10-02T09:42:55.811Z,2.75
2022-10-02T09:45:25.173Z,2.60
2022-10-02T09:48:01.657Z,2.50
2022-10-02T09:50:28.224Z,2.40
2022-10-02T09:53:05.923Z,2.20
2022-10-02T09:55:44.936Z,2.58
2022-10-02T09:58:19.778Z,2.10
2022-10-02T10:00:38.578Z,1.90
2022-10-02T10:03:13.518Z,1.77
2022-10-02T10:05:50.764Z,1.90
2022-10-02T10:08:18.492Z,2.33
2022-10-02T10:10:45.371Z,2.10
2022-10-02T10:13:21.504Z,2.17
2022-10-02T10:16:12.557Z,2.05
2022-10-02T10:18:52.318Z,1.60
2022-10-02T10:21:39.072Z,1.73
2022-10-02T10:24:15.433Z,1.95
2022-10-02T10:26:48.428Z,1.83
2022-10-02T10:29:22.709Z,2.08
2022-10-02T10:31:59.236Z,1.42
2022-10-02T10:34:46.214Z,2.85
2022-10-02T10:37:13.798Z,2.95
2022-10-02T10:39:51.927Z,2.35
2022-10-02T10:42:27.039Z,2.05
2022-10-02T10:44:52.489Z,2.08
2022-10-02T10:47:21.714Z,2.28
2022-10-02T10:50:02.987Z,2.08
2022-10-02T10:52:28.596Z,2.10
2022-10-02T10:54:55.915Z,2.67
2022-10-02T10:57:07.130Z,2.55
2022-10-02T10:59:43.541Z,3.20
2022-10-02T11:02:04.178Z,3.08
2022-10-02T11:04:40.208Z,2.95
2022-10-02T11:07:16.554Z,2.83
2022-10-02T11:09:55.772Z,1.98
2022-10-02T11:12:21.752Z,2.17
2022-10-02T11:14:39.910Z,2.38
2022-10-02T11:17:14.862Z,3.40
2022-10-02T11:19:40.477Z,4.60
2022-10-02T11:22:22.255Z,4.28
2022-10-02T11:24:45.427Z,2.53
2022-10-02T11:27:07.641Z,3.03
2022-10-02T11:29:40.377Z,2.90
2022-10-02T11:32:10.207Z,2.55
2022-10-02T11:34:42.797Z,2.10
2022-10-02T11:37:14.064Z,2.08
2022-10-02T11:39:36.251Z,3.13
2022-10-02T11:42:19.552Z,2.00
2022-10-02T11:44:36.441Z,1.85
2022-10-02T11:47:13.902Z,4.88
2022-10-02T11:50:02.239Z,3.15
2022-10-02T11:52:24.396Z,4.18
2022-10-02T11:54:47.376Z,3.05
2022-10-02T11:57:20.361Z,4.22
2022-10-02T11:59:41.243Z,7.03
2022-10-02T12:01:53.088Z,2.85
2022-10-02T12:04:09.167Z,1.65
2022-10-02T12:06:24.862Z,1.35
2022-10-02T12:08:57.009Z,1.90
2022-10-02T12:11:08.509Z,1.98
2022-10-02T12:13:47.247Z,9.85
2022-10-02T12:16:04.271Z,3.03
2022-10-02T12:18:29.275Z,2.50
2022-10-02T12:21:01.064Z,3.92
2022-10-02T12:23:31.313Z,4.30
2022-10-02T12:25:56.224Z,3.10
2022-10-02T12:28:10.686Z,1.90
2022-10-02T12:30:22.762Z,2.30
2022-10-02T12:32:43.081Z,2.10
2022-10-02T12:35:02.475Z,2.17
2022-10-02T12:37:14.957Z,2.00
2022-10-02T12:39:36.006Z,2.10
2022-10-02T12:41:55.281Z,1.92
2022-10-02T12:44:32.184Z,2.03
2022-10-02T12:47:12.777Z,1.85
2022-10-02T12:49:34.264Z,1.70
2022-10-02T12:51:46.530Z,2.00
2022-10-02T12:54:22.994Z,2.40
2022-10-02T12:57:38.084Z,2.10
2022-10-02T12:59:55.840Z,1.63
2022-10-02T13:02:59.261Z,1.60
2022-10-02T13:05:38.031Z,1.55
2022-10-02T13:08:30.056Z,1.60
2022-10-02T13:10:43.190Z,1.33
2022-10-02T13:13:15.867Z,1.65
2022-10-02T13:15:43.231Z,1.90
2022-10-02T13:17:57.597Z,1.40
2022-10-02T13:20:14.645Z,1.55
2022-10-02T13:22:31.539Z,1.30
2022-10-02T13:24:50.134Z,1.25
2022-10-02T13:27:06.423Z,1.33
2022-10-02T13:29:43.065Z,1.40
2022-10-02T13:32:02.111Z,1.17
2022-10-02T13:34:23.266Z,1.35
2022-10-02T13:36:37.765Z,1.90
2022-10-02T13:39:05.901Z,1.45
2022-10-02T13:41:21.409Z,1.38
2022-10-02T13:43:49.314Z,1.27
2022-10-02T13:46:03.370Z,1.45
2022-10-02T13:48:20.655Z,1.20
2022-10-02T13:50:37.372Z,1.23
2022-10-02T13:52:53.093Z,1.85
2022-10-02T13:57:30.200Z,2.17
2022-10-02T13:59:53.498Z,1.80
2022-10-02T14:02:21.094Z,1.88
2022-10-02T14:04:46.400Z,2.60
2022-10-02T14:06:56.693Z,1.90
2022-10-02T14:09:19.412Z,2.38
2022-10-02T14:11:39.257Z,2.55
2022-10-02T14:14:05.816Z,3.08
2022-10-02T14:18:38.624Z,2.10
2022-10-02T14:20:51.138Z,2.08
2022-10-02T14:23:20.726Z,2.30
2022-10-02T14:25:35.809Z,1.90
2022-10-02T14:28:05.190Z,1.90
2022-10-02T14:30:19.480Z,1.50
2022-10-02T14:32:43.688Z,1.77
2022-10-02T14:35:27.277Z,1.60
2022-10-02T14:37:53.257Z,1.40
2022-10-02T14:40:02.282Z,1.40
2022-10-02T14:42:26.395Z,1.38
2022-10-02T14:44:58.029Z,1.48
2022-10-02T14:47:19.251Z,1.27
2022-10-02T14:49:41.152Z,0.93
2022-10-02T14:52:04.094Z,1.27
2022-10-02T14:54:31.646Z,1.30
2022-10-02T14:56:51.178Z,1.83
2022-10-02T14:59:11.137Z,1.30
2022-10-02T15:01:26.422Z,1.30
2022-10-02T15:03:54.505Z,0.98
2022-10-02T15:06:22.481Z,1.20
2022-10-02T15:08:34.630Z,2.17
2022-10-02T15:10:42.303Z,1.52
2022-10-02T15:12:55.015Z,1.98
2022-10-02T15:15:10.636Z,2.63
2022-10-02T15:17:44.838Z,2.92
2022-10-02T15:19:54.546Z,2.85
2022-10-02T15:22:04.029Z,2.20
2022-10-02T15:24:27.050Z,2.00
2022-10-02T15:26:48.496Z,2.30
2022-10-02T15:29:04.445Z,2.80
2022-10-02T15:31:18.056Z,1.75
2022-10-02T15:33:34.324Z,1.77
2022-10-02T15:35:55.189Z,2.08
2022-10-02T15:38:18.252Z,1.40
2022-10-02T15:40:32.734Z,1.85
2022-10-02T15:42:56.142Z,3.83
2022-10-02T15:45:18.661Z,2.10
2022-10-02T15:47:38.324Z,1.30
2022-10-02T15:50:00.317Z,1.88
2022-10-02T15:52:13.896Z,1.95
2022-10-02T15:54:34.453Z,2.17
2022-10-02T15:57:15.750Z,1.30
2022-10-02T15:59:37.986Z,1.67
2022-10-02T16:01:55.879Z,1.30
2022-10-02T16:04:10.445Z,2.80
2022-10-02T16:06:31.607Z,2.15
2022-10-02T16:08:59.620Z,2.92
2022-10-02T16:11:21.806Z,6.32
2022-10-02T16:13:47.211Z,2.70
2022-10-02T16:15:55.608Z,4.15
2022-10-02T16:18:26.770Z,4.93
2022-10-02T16:21:06.470Z,7.07
2022-10-02T16:23:36.033Z,4.03
2022-10-02T16:26:05.358Z,5.65
2022-10-02T16:28:27.120Z,3.95
2022-10-02T16:30:41.323Z,6.53
2022-10-02T16:33:06.711Z,5.20
2022-10-02T16:35:44.312Z,5.20
2022-10-02T16:37:59.197Z,3.50
2022-10-02T16:40:26.982Z,4.77
2022-10-02T16:42:48.797Z,4.00
2022-10-02T16:45:25.900Z,3.40
2022-10-02T16:47:35.357Z,3.28
2022-10-02T16:49:52.769Z,2.70
2022-10-02T16:52:06.460Z,3.13
2022-10-02T16:54:24.344Z,3.25
2022-10-02T16:56:35.710Z,3.05
2022-10-02T16:58:47.765Z,2.90
2022-10-02T17:00:58.893Z,3.53
2022-10-02T17:03:15.001Z,2.92
2022-10-02T17:05:29.193Z,3.47
2022-10-02T17:07:43.856Z,3.50
2022-10-02T17:09:53.625Z,2.88
2022-10-02T17:12:09.985Z,2.58
2022-10-02T17:14:21.440Z,2.42
2022-10-02T17:16:31.044Z,2.67
2022-10-02T17:18:44.125Z,2.53
2022-10-02T17:20:52.602Z,2.58
2022-10-02T17:23:04.489Z,3.08
2022-10-02T17:25:22.041Z,2.05
2022-10-02T17:27:48.153Z,2.72
2022-10-02T17:30:05.615Z,2.17
2022-10-02T17:32:11.930Z,2.40
2022-10-02T17:34:23.511Z,2.30
2022-10-02T17:36:37.560Z,2.45
2022-10-02T17:39:23.944Z,1.77
2022-10-02T17:41:43.546Z,2.20
2022-10-02T17:44:03.609Z,1.70
2022-10-02T17:46:32.594Z,2.30
2022-10-02T17:48:50.975Z,1.70
2022-10-02T17:51:51.322Z,2.10
2022-10-02T17:54:17.766Z,1.63
2022-10-02T17:56:35.383Z,2.13
2022-10-02T17:58:52.193Z,2.65
2022-10-02T18:01:12.968Z,2.35
2022-10-02T18:03:57.308Z,3.35
2022-10-02T18:06:17.449Z,2.90
2022-10-02T18:08:40.899Z,2.65
2022-10-02T18:10:56.858Z,3.00
2022-10-02T18:13:17.241Z,2.97
2022-10-02T18:15:58.268Z,3.15
2022-10-02T18:18:21.362Z,2.75
2022-10-02T18:20:35.993Z,2.53
2022-10-02T18:23:04.980Z,2.65
2022-10-02T18:25:27.571Z,3.30
2022-10-02T18:27:55.917Z,2.50
2022-10-02T18:30:08.914Z,2.65
2022-10-02T18:32:37.622Z,2.80
2022-10-02T18:34:58.490Z,6.57
2022-10-02T18:37:20.266Z,3.00
2022-10-02T18:39:40.215Z,2.80
2022-10-02T18:41:58.464Z,3.28
2022-10-02T18:44:18.378Z,3.40
2022-10-02T18:46:37.348Z,2.90
2022-10-02T18:49:06.302Z,2.72
2022-10-02T18:51:26.861Z,2.65
2022-10-02T18:53:52.085Z,2.20
2022-10-02T18:56:06.773Z,2.53
2022-10-02T18:58:24.164Z,2.63
2022-10-02T19:00:52.733Z,2.65
2022-10-02T19:03:17.984Z,3.20
2022-10-02T19:05:28.201Z,2.90
2022-10-02T19:07:43.520Z,2.63
2022-10-02T19:09:49.553Z,3.13
2022-10-02T19:12:01.705Z,3.35
2022-10-02T19:14:19.264Z,2.45
2022-10-02T19:16:30.105Z,2.58
2022-10-02T19:18:36.680Z,2.72
2022-10-02T19:20:51.851Z,3.22
2022-10-02T19:22:59.335Z,3.10
2022-10-02T19:25:16.129Z,2.90
2022-10-02T19:27:26.812Z,2.55
2022-10-02T19:29:37.147Z,3.08
2022-10-02T19:31:42.060Z,2.97
2022-10-02T19:33:51.331Z,3.00
2022-10-02T19:35:56.137Z,3.42
2022-10-02T19:38:16.137Z,3.67
2022-10-02T19:40:24.213Z,4.82
2022-10-02T19:42:31.571Z,4.30
2022-10-02T19:44:41.008Z,3.30
2022-10-02T19:46:52.917Z,3.50
2022-10-02T19:48:59.853Z,3.35
2022-10-02T19:51:07.549Z,3.45
2022-10-02T19:53:25.854Z,3.42
2022-10-02T19:55:34.795Z,2.97
2022-10-02T19:57:43.257Z,3.17
2022-10-02T19:59:53.533Z,4.68
2022-10-02T20:02:02.300Z,4.82
2022-10-02T20:04:08.787Z,6.07
2022-10-02T20:06:19.201Z,7.53
2022-10-02T20:08:32.713Z,7.57
2022-10-02T20:10:40.403Z,11.02
2022-10-02T20:12:51.824Z,5.03
2022-10-02T20:15:01.994Z,5.40
2022-10-02T20:17:10.830Z,5.75
2022-10-02T20:19:20.715Z,6.05
2022-10-02T20:21:33.943Z,4.70
2022-10-02T20:23:49.939Z,5.40
2022-10-02T20:28:07.263Z,4.60
2022-10-02T20:30:16.940Z,4.75
2022-10-02T20:32:27.048Z,5.15
2022-10-02T20:34:37.728Z,6.03
2022-10-02T20:36:58.269Z,4.60
2022-10-02T20:39:10.481Z,4.82
2022-10-02T20:41:21.549Z,5.68
2022-10-02T20:43:32.945Z,5.68
2022-10-02T20:45:43.309Z,5.63
2022-10-02T20:48:17.191Z,7.28
2022-10-02T20:50:35.617Z,6.15
2022-10-02T20:53:18.438Z,7.15
2022-10-02T20:55:30.419Z,6.38
2022-10-02T20:58:01.484Z,7.82
2022-10-02T21:00:18.949Z,6.40
2022-10-02T21:02:42.267Z,7.38
2022-10-02T21:05:13.949Z,8.00
2022-10-02T21:07:30.069Z,8.18
2022-10-02T21:10:09.020Z,9.85
2022-10-02T21:12:41.157Z,10.35
2022-10-02T21:15:03.550Z,8.93
2022-10-02T21:17:29.402Z,10.85
2022-10-02T21:20:05.157Z,11.50
2022-10-02T21:22:42.209Z,10.20
2022-10-02T21:25:18.286Z,12.73
2022-10-02T21:27:51.786Z,11.77
2022-10-02T21:30:06.242Z,11.27
2022-10-02T21:32:38.245Z,9.93
2022-10-02T21:34:55.416Z,9.27
2022-10-02T21:37:04.689Z,10.27
2022-10-02T21:39:41.703Z,11.68
2022-10-02T21:42:24.164Z,10.05
2022-10-02T21:45:14.357Z,10.10
2022-10-02T21:47:48.200Z,9.68
2022-10-02T21:50:19.832Z,10.98
2022-10-02T21:53:03.272Z,10.13
2022-10-02T21:55:33.164Z,10.20
2022-10-02T21:58:04.908Z,10.20
2022-10-02T22:00:23.544Z,10.60
2022-10-02T22:03:04.450Z,10.52
2022-10-02T22:05:37.585Z,9.88
2022-10-02T22:07:50.190Z,10.75
2022-10-02T22:10:02.327Z,11.25
2022-10-02T22:12:22.194Z,10.20
2022-10-02T22:14:33.687Z,10.05
2022-10-02T22:16:50.170Z,10.55
2022-10-02T22:19:01.841Z,10.85
2022-10-02T22:21:21.147Z,10.85
2022-10-02T22:23:51.368Z,10.38
2022-10-02T22:26:06.908Z,10.73
2022-10-02T22:28:28.348Z,10.45
2022-10-02T22:30:40.202Z,11.30
2022-10-02T22:33:13.462Z,9.70
2022-10-02T22:35:29.102Z,10.70
2022-10-02T22:37:51.339Z,11.30
2022-10-02T22:40:04.068Z,11.50
2022-10-02T22:42:14.145Z,10.45
2022-10-02T22:44:26.924Z,11.35
2022-10-02T22:46:41.697Z,10.63
2022-10-02T22:48:53.775Z,12.40
2022-10-02T22:51:04.362Z,12.32
2022-10-02T22:53:18.205Z,11.32
2022-10-02T22:55:28.953Z,11.73
2022-10-02T22:57:42.878Z,11.05
2022-10-02T22:59:55.339Z,11.38
2022-10-02T23:02:06.656Z,10.55
2022-10-02T23:04:23.579Z,11.65
2022-10-02T23:06:33.885Z,11.80
2022-10-02T23:08:46.240Z,11.68
2022-10-02T23:10:54.911Z,10.63
2022-10-02T23:13:07.678Z,11.68
2022-10-02T23:15:30.885Z,12.32
2022-10-02T23:17:42.496Z,11.13
2022-10-02T23:19:55.948Z,11.35
2022-10-02T23:22:08.992Z,11.15
2022-10-02T23:24:26.077Z,10.77
2022-10-02T23:26:38.429Z,10.35
2022-10-02T23:28:52.137Z,11.02
2022-10-02T23:31:08.622Z,10.13
2022-10-02T23:33:23.136Z,11.13
2022-10-02T23:35:40.849Z,11.45
2022-10-02T23:37:54.496Z,11.43
2022-10-02T23:40:08.900Z,11.82
2022-10-02T23:42:21.496Z,10.15
2022-10-02T23:44:35.806Z,10.95
2022-10-02T23:46:56.559Z,11.30
2022-10-02T23:49:01.701Z,10.63
2022-10-02T23:51:18.142Z,11.63
2022-10-02T23:53:55.028Z,10.88
2022-10-02T23:58:28.240Z,11.73
